Time;durP1;ratioP1;P1;durP2;ratioP2;P2;SDS_P1;SDS_P2;PMS_P1;PMS_P2;Temp;Humidity;BMP_temperature;BMP_pressure;BME280_temperature;BME280_humidity;BME280_pressure;Samples;Min_cycle;Max_cycle;Signal;HPM_P1;HPM_P2
2022/11/09 00:02:07;;;;;;;7.77;4.60;;;;;;;15.33;53.65;97103.97;5069761;28;20180;-70
2022/11/09 00:04:32;;;;;;;7.43;4.27;;;;;;;15.33;53.83;97108.47;5064006;28;20184;-70
2022/11/09 00:06:57;;;;;;;4.43;3.20;;;;;;;15.34;52.20;97104.81;5065710;28;20257;-70
2022/11/09 00:09:23;;;;;;;5.73;4.00;;;;;;;15.38;52.17;97103.41;5066345;28;20305;-71
2022/11/09 00:11:48;;;;;;;3.80;3.50;;;;;;;15.38;52.17;97110.53;5066167;28;20698;-71
2022/11/09 00:14:15;;;;;;;5.13;4.00;;;;;;;15.39;51.75;97105.06;5060901;28;20191;-69
2022/11/09 00:16:40;;;;;;;5.57;3.90;;;;;;;15.46;51.41;97105.97;5059185;28;20270;-70
2022/11/09 00:19:06;;;;;;;8.43;3.60;;;;;;;15.46;51.32;97098.06;5050959;28;20520;-70
2022/11/09 00:21:31;;;;;;;11.10;3.97;;;;;;;15.52;51.37;97099.94;5055512;28;20230;-69
2022/11/09 00:23:57;;;;;;;5.37;4.10;;;;;;;15.58;51.19;97100.19;5053298;28;20179;-70
2022/11/09 00:26:22;;;;;;;6.67;4.13;;;;;;;15.60;51.06;97093.72;5052164;28;20266;-70
2022/11/09 00:28:48;;;;;;;5.90;4.50;;;;;;;15.60;50.98;97093.72;5057911;28;20205;-69
2022/11/09 00:31:19;;;;;;;8.50;5.50;;;;;;;15.62;51.09;97096.19;5063118;28;20205;-69
2022/11/09 00:33:53;;;;;;;9.20;5.87;;;;;;;15.63;50.84;97092.53;5064304;28;20544;-70
2022/11/09 00:36:19;;;;;;;8.27;4.40;;;;;;;15.62;50.58;97091.72;5066972;28;20757;-71
2022/11/09 00:38:55;;;;;;;5.83;4.30;;;;;;;15.63;50.70;97092.53;5061321;28;20494;-70
2022/11/09 00:41:21;;;;;;;7.33;4.40;;;;;;;15.61;50.58;97099.84;5062354;28;20460;-70
2022/11/09 00:43:48;;;;;;;7.73;4.00;;;;;;;15.55;50.81;97096.13;5063227;28;20414;-70
2022/11/09 00:46:13;;;;;;;7.03;4.60;;;;;;;15.56;50.60;97089.00;5067192;28;20428;-71
2022/11/09 00:48:39;;;;;;;4.40;4.00;;;;;;;15.62;50.72;97097.00;5061429;28;20761;-70
2022/11/09 00:51:05;;;;;;;6.93;4.50;;;;;;;15.59;50.74;97091.28;5060244;28;20198;-70
2022/11/09 00:53:30;;;;;;;4.30;3.87;;;;;;;15.51;50.82;97085.09;5068579;28;20185;-70
2022/11/09 00:56:07;;;;;;;4.77;3.57;;;;;;;15.47;50.70;97083.84;5060589;28;20258;-70
2022/11/09 00:58:34;;;;;;;7.30;4.10;;;;;;;15.42;50.66;97088.84;5055979;28;20178;-70
2022/11/09 01:01:06;;;;;;;6.40;3.83;;;;;;;15.43;50.83;97074.66;5068911;28;20495;-70
2022/11/09 01:03:31;;;;;;;4.70;4.20;;;;;;;15.49;50.86;97076.56;5053192;28;20441;-70
2022/11/09 01:06:00;;;;;;;6.07;4.50;;;;;;;15.50;51.02;97083.44;5058369;28;21233;-69
2022/11/09 01:08:25;;;;;;;5.50;3.67;;;;;;;15.51;51.04;97090.38;5065505;28;20178;-69
2022/11/09 01:10:51;;;;;;;4.53;4.00;;;;;;;15.46;51.19;97092.78;5064537;28;20462;-70
2022/11/09 01:13:17;;;;;;;6.73;4.43;;;;;;;15.24;51.42;97094.53;5060873;28;20180;-70
2022/11/09 01:15:49;;;;;;;6.40;4.40;;;;;;;15.40;51.23;97087.41;5059284;28;20761;-70
2022/11/09 01:18:16;;;;;;;6.93;4.30;;;;;;;15.46;51.07;97097.22;5067013;28;20418;-72
2022/11/09 01:20:43;;;;;;;6.07;4.40;;;;;;;15.47;50.76;97089.13;5056880;28;20527;-70
2022/11/09 01:23:09;;;;;;;6.07;4.60;;;;;;;15.44;51.31;97089.50;5058656;28;20433;-71
2022/11/09 01:25:35;;;;;;;4.93;4.17;;;;;;;15.45;51.25;97091.13;5062566;28;20413;-71
2022/11/09 01:28:01;;;;;;;10.90;4.50;;;;;;;15.49;51.02;97081.84;5063055;28;20432;-71
2022/11/09 01:30:27;;;;;;;7.37;4.00;;;;;;;15.49;51.36;97092.41;5066910;28;20443;-69
2022/11/09 01:32:52;;;;;;;4.90;4.00;;;;;;;15.50;51.33;97093.22;5065295;28;20433;-70
2022/11/09 01:35:18;;;;;;;4.77;3.60;;;;;;;15.51;51.41;97089.56;5068264;28;20591;-70
2022/11/09 01:37:44;;;;;;;7.30;3.70;;;;;;;15.49;51.06;97091.56;5061145;28;20541;-70
2022/11/09 01:40:10;;;;;;;4.80;3.60;;;;;;;15.55;51.31;97090.00;5060798;28;20206;-70
2022/11/09 01:42:37;;;;;;;5.40;3.60;;;;;;;15.54;51.05;97091.84;5060617;28;20669;-70
2022/11/09 01:45:24;;;;;;;3.53;3.23;;;;;;;15.57;50.99;97082.72;5061256;28;20424;-71
2022/11/09 01:47:57;;;;;;;4.23;3.57;;;;;;;15.52;51.35;97073.53;5055972;28;20500;-69
2022/11/09 01:50:42;;;;;;;4.30;3.60;;;;;;;15.55;51.65;97074.16;5056274;28;20438;-71
2022/11/09 01:53:14;;;;;;;5.83;3.70;;;;;;;15.58;51.41;97079.06;5063243;28;20473;-70
2022/11/09 01:55:40;;;;;;;6.00;3.50;;;;;;;15.55;52.14;97074.16;5060933;28;20421;-70
2022/11/09 01:58:09;;;;;;;4.93;3.83;;;;;;;15.54;52.48;97078.63;5051350;28;20425;-68
2022/11/09 02:00:37;;;;;;;4.77;3.67;;;;;;;15.43;53.26;97077.28;5069098;28;20463;-69
2022/11/09 02:03:19;;;;;;;5.63;4.10;;;;;;;15.43;53.29;97082.56;5062544;28;21013;-71
2022/11/09 02:05:44;;;;;;;4.07;3.60;;;;;;;15.46;53.02;97084.00;5049425;28;20417;-70
2022/11/09 02:08:12;;;;;;;7.60;4.23;;;;;;;15.41;53.52;97075.84;5061678;28;20464;-71
2022/11/09 02:10:44;;;;;;;4.00;3.60;;;;;;;15.41;53.86;97089.84;5062526;28;20289;-70
2022/11/09 02:13:11;;;;;;;4.67;3.60;;;;;;;15.42;54.09;97094.13;5057643;28;20952;-71
2022/11/09 02:15:37;;;;;;;6.23;3.20;;;;;;;15.40;52.92;97080.28;5063155;28;20420;-71
2022/11/09 02:18:03;;;;;;;4.07;2.70;;;;;;;15.43;52.91;97076.47;5065602;28;20479;-70
2022/11/09 02:20:28;;;;;;;3.23;2.63;;;;;;;15.53;52.42;97082.28;5057608;28;20206;-71
2022/11/09 02:22:54;;;;;;;3.47;2.50;;;;;;;15.60;50.76;97080.50;5048617;28;20202;-71
2022/11/09 02:25:20;;;;;;;5.97;2.30;;;;;;;15.66;50.22;97068.38;5055371;28;20197;-71
2022/11/09 02:27:45;;;;;;;2.90;2.33;;;;;;;15.74;49.96;97068.28;5049954;28;20185;-70
2022/11/09 02:30:12;;;;;;;2.10;1.90;;;;;;;15.82;50.26;97073.41;5061567;28;20203;-70
2022/11/09 02:32:38;;;;;;;3.43;2.33;;;;;;;15.90;50.30;97082.25;5065488;28;20181;-70
2022/11/09 02:35:04;;;;;;;3.80;2.33;;;;;;;15.96;50.11;97079.66;5058770;28;20429;-71
2022/11/09 02:37:34;;;;;;;3.60;2.27;;;;;;;16.03;49.92;97077.09;5047339;28;20206;-71
2022/11/09 02:40:02;;;;;;;3.10;2.80;;;;;;;16.09;49.94;97081.63;5047820;28;20191;-70
2022/11/09 02:42:28;;;;;;;2.40;2.20;;;;;;;16.16;48.93;97088.78;5061172;28;20425;-70
2022/11/09 02:44:55;;;;;;;3.73;2.33;;;;;;;16.20;49.18;97090.03;5063795;28;20434;-70
2022/11/09 02:47:21;;;;;;;2.77;2.27;;;;;;;16.25;49.15;97095.59;5055743;28;20189;-71
2022/11/09 02:49:46;;;;;;;3.93;2.50;;;;;;;16.30;49.33;97093.16;5064655;28;20408;-70
2022/11/09 02:52:12;;;;;;;4.30;2.90;;;;;;;16.31;49.25;97104.56;5065261;28;20182;-70
2022/11/09 02:54:37;;;;;;;4.50;2.50;;;;;;;16.33;49.12;97107.81;5070309;28;20681;-70
2022/11/09 02:57:03;;;;;;;3.20;2.33;;;;;;;16.32;48.99;97109.66;5061200;28;20257;-70
2022/11/09 02:59:28;;;;;;;2.60;2.27;;;;;;;16.34;49.17;97118.22;5060677;28;20208;-72
2022/11/09 03:01:54;;;;;;;3.17;2.70;;;;;;;16.36;49.25;97126.78;5069162;28;20284;-71
2022/11/09 03:04:19;;;;;;;3.20;2.83;;;;;;;16.35;49.41;97126.97;5064152;28;20179;-71
2022/11/09 03:06:45;;;;;;;3.50;3.03;;;;;;;16.33;49.27;97131.63;5071399;28;20209;-71
2022/11/09 03:09:11;;;;;;;5.80;3.23;;;;;;;16.29;49.84;97139.13;5066343;28;20332;-71
2022/11/09 03:11:38;;;;;;;5.17;3.40;;;;;;;16.26;50.40;97134.22;5070718;28;20201;-70
2022/11/09 03:14:03;;;;;;;3.17;2.80;;;;;;;16.21;51.45;97136.63;5060224;28;20422;-70
2022/11/09 03:16:29;;;;;;;3.40;2.83;;;;;;;16.18;51.74;97137.00;5062071;28;20782;-70
2022/11/09 03:18:55;;;;;;;3.90;3.27;;;;;;;16.18;51.79;97140.47;5068574;28;20260;-69
2022/11/09 03:21:21;;;;;;;5.60;3.73;;;;;;;16.15;52.49;97147.94;5058177;28;20210;-69
2022/11/09 03:23:47;;;;;;;5.30;3.83;;;;;;;16.03;52.74;97148.44;5069830;28;20429;-69
2022/11/09 03:26:12;;;;;;;9.53;4.13;;;;;;;16.02;53.60;97138.88;5065936;28;20182;-69
2022/11/09 03:28:38;;;;;;;4.00;3.40;;;;;;;15.99;54.25;97139.28;5069524;28;20808;-69
2022/11/09 03:31:04;;;;;;;5.47;3.50;;;;;;;15.95;54.25;97141.44;5063125;28;20640;-69
2022/11/09 03:33:29;;;;;;;5.33;3.97;;;;;;;15.98;54.43;97148.22;5062131;28;20269;-69
2022/11/09 03:35:54;;;;;;;4.97;4.10;;;;;;;15.90;55.66;97140.38;5066582;28;20304;-68
2022/11/09 03:38:20;;;;;;;9.63;3.60;;;;;;;15.86;56.29;97150.53;5065828;28;20531;-69
2022/11/09 03:40:45;;;;;;;5.43;3.93;;;;;;;15.75;56.93;97154.44;5066596;28;20229;-72
2022/11/09 03:43:11;;;;;;;8.10;3.83;;;;;;;15.74;57.46;97147.53;5064603;28;20266;-70
2022/11/09 03:45:36;;;;;;;6.70;3.80;;;;;;;15.74;57.94;97146.69;5064238;28;20645;-69
2022/11/09 03:48:02;;;;;;;7.37;3.80;;;;;;;15.67;58.55;97143.97;5067714;28;20190;-69
2022/11/09 03:50:29;;;;;;;5.40;4.20;;;;;;;15.57;59.03;97135.53;5062277;28;20201;-69
2022/11/09 03:52:55;;;;;;;6.50;3.80;;;;;;;15.57;59.70;97146.91;5064868;28;20265;-69
2022/11/09 03:55:21;;;;;;;5.50;3.70;;;;;;;15.57;60.15;97146.91;5059922;28;20431;-70
2022/11/09 03:57:47;;;;;;;4.73;4.23;;;;;;;15.51;60.70;97129.97;5063491;28;20453;-71
2022/11/09 04:00:15;;;;;;;3.93;3.63;;;;;;;15.54;60.63;97135.91;5058636;28;20297;-69
2022/11/09 04:02:41;;;;;;;4.90;4.27;;;;;;;15.52;60.98;97138.75;5064067;28;20582;-70
2022/11/09 04:05:07;;;;;;;5.03;4.03;;;;;;;15.50;60.93;97133.63;5054112;28;20438;-70
2022/11/09 04:07:33;;;;;;;5.63;4.07;;;;;;;15.48;61.04;97143.59;5065932;28;20182;-69
2022/11/09 04:09:58;;;;;;;5.80;4.27;;;;;;;15.49;61.35;97142.59;5068975;28;20436;-70
2022/11/09 04:12:23;;;;;;;6.00;4.07;;;;;;;15.49;61.42;97152.31;5065794;28;20269;-71
2022/11/09 04:14:49;;;;;;;6.27;4.17;;;;;;;15.43;61.82;97147.78;5064619;28;20235;-70
2022/11/09 04:17:14;;;;;;;4.57;4.07;;;;;;;15.43;62.12;97151.22;5064809;28;20178;-69
2022/11/09 04:19:40;;;;;;;8.20;3.93;;;;;;;15.40;62.32;97159.50;5063829;28;20660;-69
2022/11/09 04:22:06;;;;;;;4.83;3.93;;;;;;;15.40;62.42;97161.34;5064735;28;20198;-71
2022/11/09 04:24:31;;;;;;;5.47;4.20;;;;;;;15.43;62.57;97166.28;5064308;28;20174;-70
2022/11/09 04:26:56;;;;;;;4.30;3.90;;;;;;;15.44;62.70;97174.00;5068257;28;20187;-70
2022/11/09 04:29:22;;;;;;;4.90;3.60;;;;;;;15.44;62.74;97163.44;5065638;28;20236;-71
2022/11/09 04:31:48;;;;;;;4.73;3.73;;;;;;;15.42;63.04;97165.44;5049486;28;20278;-70
2022/11/09 04:34:13;;;;;;;6.87;5.10;;;;;;;15.35;63.32;97168.00;5066713;28;20198;-71
2022/11/09 04:36:39;;;;;;;15.10;10.13;;;;;;;15.36;63.42;97166.19;5052481;28;20191;-69
2022/11/09 04:39:08;;;;;;;11.80;7.97;;;;;;;15.33;63.82;97171.81;5067856;28;20613;-71
2022/11/09 04:41:33;;;;;;;8.53;6.80;;;;;;;15.29;63.71;97170.53;5036169;28;20301;-71
2022/11/09 04:43:59;;;;;;;7.37;5.90;;;;;;;15.28;64.19;97168.91;5058087;28;20994;-71
2022/11/09 04:46:24;;;;;;;7.63;5.33;;;;;;;15.26;64.12;97165.63;5061189;28;20178;-70
2022/11/09 04:48:50;;;;;;;7.87;4.50;;;;;;;15.19;64.26;97157.59;5060450;28;20180;-70
2022/11/09 04:51:15;;;;;;;4.13;3.63;;;;;;;15.18;64.47;97148.09;5065276;28;20610;-70
2022/11/09 04:53:41;;;;;;;5.93;4.30;;;;;;;15.05;64.77;97151.34;5053654;28;20186;-70
2022/11/09 04:56:06;;;;;;;5.90;3.70;;;;;;;15.07;65.04;97145.88;5066837;28;20320;-69
2022/11/09 04:58:32;;;;;;;8.07;3.90;;;;;;;14.88;65.30;97140.97;5066712;28;20649;-70
2022/11/09 05:01:05;;;;;;;8.03;4.40;;;;;;;14.79;65.97;97133.34;5059098;28;20281;-71
2022/11/09 05:03:30;;;;;;;4.90;3.97;;;;;;;14.50;66.63;97130.41;5057313;28;20558;-70
2022/11/09 05:05:56;;;;;;;7.90;3.90;;;;;;;14.40;67.65;97130.69;5060050;28;20425;-70
2022/11/09 05:08:21;;;;;;;7.47;4.47;;;;;;;14.39;67.41;97138.75;5066267;28;20182;-70
2022/11/09 05:10:47;;;;;;;6.10;4.10;;;;;;;14.56;67.10;97136.78;5054574;28;20317;-70
2022/11/09 05:13:13;;;;;;;5.37;4.40;;;;;;;14.63;67.16;97150.09;5067428;28;20220;-71
2022/11/09 05:15:39;;;;;;;4.47;4.07;;;;;;;14.72;66.70;97151.69;5059096;28;20186;-70
2022/11/09 05:18:05;;;;;;;9.40;4.80;;;;;;;14.78;66.31;97148.31;5058491;28;20265;-70
2022/11/09 05:20:31;;;;;;;6.40;4.30;;;;;;;14.84;66.21;97147.63;5061633;28;20464;-70
2022/11/09 05:25:41;;;;;;;10.53;4.90;;;;;;;14.85;66.29;97140.50;5058643;28;20256;-71
2022/11/09 05:28:07;;;;;;;15.27;10.60;;;;;;;14.84;66.38;97133.59;5060705;28;20466;-70
2022/11/09 05:30:32;;;;;;;6.40;4.80;;;;;;;14.80;65.93;97135.78;5059832;28;20316;-71
2022/11/09 05:32:58;;;;;;;5.50;4.27;;;;;;;14.81;65.92;97137.41;5060643;28;20269;-72
2022/11/09 05:35:23;;;;;;;7.37;5.30;;;;;;;14.83;65.89;97130.16;5065808;28;20237;-70
2022/11/09 05:37:49;;;;;;;5.57;4.00;;;;;;;14.76;65.93;97131.06;5053417;28;20192;-71
2022/11/09 05:40:16;;;;;;;10.47;4.07;;;;;;;14.57;66.44;97130.53;5066288;28;20215;-70
2022/11/09 05:42:41;;;;;;;6.93;4.37;;;;;;;14.69;66.03;97142.31;5057180;28;20681;-70
2022/11/09 05:45:09;;;;;;;5.80;3.90;;;;;;;14.54;66.35;97137.00;5057242;28;20425;-68
2022/11/09 05:47:41;;;;;;;5.53;3.90;;;;;;;14.48;66.64;97121.91;5061188;28;20182;-68
2022/11/09 05:50:09;;;;;;;5.97;4.07;;;;;;;14.25;67.86;97124.56;5061658;28;20421;-70
2022/11/09 05:52:34;;;;;;;6.13;4.50;;;;;;;14.52;66.92;97125.78;5067417;28;20791;-70
2022/11/09 05:55:00;;;;;;;7.40;4.50;;;;;;;14.53;67.01;97119.53;5058282;28;20416;-69
2022/11/09 05:57:26;;;;;;;4.67;4.23;;;;;;;14.58;67.04;97124.25;5064203;28;20174;-71
2022/11/09 05:59:52;;;;;;;7.43;5.30;;;;;;;14.58;67.09;97130.38;5061904;28;20206;-70
2022/11/09 06:02:17;;;;;;;8.30;4.60;;;;;;;14.62;67.19;97124.75;5059721;28;20429;-71
2022/11/09 06:04:43;;;;;;;4.80;4.30;;;;;;;14.69;67.34;97133.59;5021132;28;20864;-70
2022/11/09 06:07:08;;;;;;;7.77;4.50;;;;;;;14.68;67.00;97137.22;5042114;28;20186;-70
2022/11/09 06:09:34;;;;;;;5.33;3.83;;;;;;;14.71;66.81;97144.78;5048206;28;20178;-71
2022/11/09 06:11:59;;;;;;;9.47;4.27;;;;;;;14.73;66.90;97137.50;5024908;28;20209;-71
2022/11/09 06:14:24;;;;;;;13.93;4.57;;;;;;;14.77;66.86;97148.53;5060058;28;20772;-71
2022/11/09 06:16:50;;;;;;;8.13;5.17;;;;;;;14.72;66.89;97154.34;5060302;28;20254;-69
2022/11/09 06:19:15;;;;;;;5.00;4.20;;;;;;;14.77;66.93;97146.69;5057324;28;20183;-71
2022/11/09 06:21:41;;;;;;;4.73;4.17;;;;;;;14.76;66.42;97168.78;5065575;28;20222;-71
2022/11/09 06:24:06;;;;;;;8.30;4.53;;;;;;;14.79;66.58;97165.00;5061439;28;20210;-69
2022/11/09 06:26:32;;;;;;;5.50;4.37;;;;;;;14.81;66.59;97169.06;5061051;28;20190;-70
2022/11/09 06:28:57;;;;;;;5.87;4.83;;;;;;;14.84;66.71;97162.63;5060123;28;20178;-70
2022/11/09 06:31:23;;;;;;;5.30;4.33;;;;;;;14.80;67.06;97162.16;5058398;28;20199;-70
2022/11/09 06:33:48;;;;;;;6.83;4.23;;;;;;;14.84;67.03;97173.16;5062893;28;20194;-71
2022/11/09 06:36:14;;;;;;;6.87;4.73;;;;;;;14.84;66.96;97160.81;5058607;28;20274;-71
2022/11/09 06:38:39;;;;;;;5.63;4.37;;;;;;;14.89;66.85;97166.34;5062467;28;20221;-70
2022/11/09 06:41:05;;;;;;;5.80;4.40;;;;;;;14.90;66.83;97177.72;5053934;28;20218;-69
2022/11/09 06:43:31;;;;;;;11.47;4.57;;;;;;;14.87;66.39;97170.97;5060745;28;20655;-71
2022/11/09 06:45:56;;;;;;;10.10;4.43;;;;;;;14.88;66.01;97169.97;5061125;28;20231;-71
2022/11/09 06:48:22;;;;;;;6.07;5.00;;;;;;;14.83;66.59;97169.72;5062805;28;20221;-71
2022/11/09 06:50:47;;;;;;;5.77;5.20;;;;;;;14.89;67.30;97178.72;5063612;28;20204;-69
2022/11/09 06:53:14;;;;;;;6.53;5.40;;;;;;;14.93;66.60;97195.03;5044933;28;20192;-70
2022/11/09 06:55:40;;;;;;;9.60;5.07;;;;;;;14.97;66.64;97193.66;5062024;28;20194;-71
2022/11/09 06:58:07;;;;;;;7.70;4.67;;;;;;;14.98;66.14;97184.75;5037263;28;20418;-72
2022/11/09 07:00:33;;;;;;;5.50;4.37;;;;;;;15.01;66.15;97187.00;5054057;28;20550;-73
2022/11/09 07:02:59;;;;;;;6.83;4.90;;;;;;;15.02;66.43;97191.28;5048505;28;20513;-72
2022/11/09 07:05:24;;;;;;;8.90;4.40;;;;;;;15.03;66.38;97199.03;5015617;28;20194;-71
2022/11/09 07:07:50;;;;;;;12.57;3.70;;;;;;;15.08;66.25;97208.22;5042054;28;20179;-70
2022/11/09 07:10:16;;;;;;;6.23;4.50;;;;;;;15.08;66.38;97202.94;5038944;28;20317;-72
2022/11/09 07:12:41;;;;;;;5.70;3.40;;;;;;;15.07;66.47;97203.94;5036883;28;20180;-70
2022/11/09 07:15:07;;;;;;;3.73;3.20;;;;;;;15.12;66.50;97215.59;5047629;28;20549;-70
2022/11/09 07:17:33;;;;;;;3.90;3.37;;;;;;;15.10;66.50;97233.44;5050007;28;20187;-71
2022/11/09 07:19:59;;;;;;;3.67;3.17;;;;;;;15.10;66.70;97273.03;5057284;28;20215;-69
2022/11/09 07:22:26;;;;;;;4.70;4.10;;;;;;;15.05;67.38;97283.31;5055855;28;20787;-69
2022/11/09 07:24:52;;;;;;;3.47;3.17;;;;;;;15.02;67.41;97284.50;5045230;28;20191;-71
2022/11/09 07:27:17;;;;;;;3.77;2.80;;;;;;;15.04;67.69;97292.22;5058594;28;20428;-72
2022/11/09 07:29:43;;;;;;;5.30;2.80;;;;;;;15.02;67.55;97286.28;5052050;28;20199;-71
2022/11/09 07:32:08;;;;;;;3.47;2.50;;;;;;;15.01;67.69;97282.00;5053467;28;20207;-71
2022/11/09 07:34:33;;;;;;;5.07;2.43;;;;;;;15.03;67.80;97280.03;5071837;28;20232;-72
2022/11/09 07:36:59;;;;;;;3.30;2.30;;;;;;;15.10;67.72;97262.47;5061833;28;20189;-72
2022/11/09 07:39:24;;;;;;;4.60;2.77;;;;;;;15.10;67.89;97261.66;5072344;28;20205;-70
2022/11/09 07:41:50;;;;;;;3.30;2.83;;;;;;;15.14;67.87;97268.22;5060666;28;20203;-71
2022/11/09 07:44:17;;;;;;;4.60;2.80;;;;;;;15.17;67.93;97262.59;5058531;28;20556;-71
2022/11/09 07:46:45;;;;;;;4.00;2.87;;;;;;;15.22;67.83;97270.75;5066955;28;20185;-71
2022/11/09 07:49:12;;;;;;;4.50;2.97;;;;;;;15.26;67.70;97258.03;5052325;28;20434;-70
2022/11/09 07:51:38;;;;;;;7.40;3.13;;;;;;;15.30;67.72;97256.66;5069960;28;20468;-70
2022/11/09 07:54:03;;;;;;;4.43;2.93;;;;;;;15.34;68.02;97257.94;5048730;28;20485;-71
2022/11/09 07:56:29;;;;;;;5.80;3.63;;;;;;;15.33;68.27;97266.88;5041700;28;20183;-70
2022/11/09 07:58:54;;;;;;;5.50;3.90;;;;;;;15.35;68.57;97264.88;5040165;28;20664;-71
2022/11/09 08:01:20;;;;;;;4.73;3.10;;;;;;;15.34;68.36;97268.50;5041046;28;20243;-72
2022/11/09 08:03:46;;;;;;;4.90;3.70;;;;;;;15.41;68.28;97264.13;5044772;28;20694;-71
2022/11/09 08:06:11;;;;;;;3.77;3.37;;;;;;;15.43;67.73;97277.97;5043638;28;20508;-70
2022/11/09 08:08:36;;;;;;;7.87;3.80;;;;;;;15.39;67.91;97266.13;5041736;28;20713;-70
2022/11/09 08:11:02;;;;;;;4.67;3.97;;;;;;;15.42;68.16;97275.53;5040346;28;20327;-71
2022/11/09 08:13:27;;;;;;;6.90;3.93;;;;;;;15.42;68.03;97281.63;5042572;28;20191;-70
2022/11/09 08:15:53;;;;;;;7.07;3.93;;;;;;;15.40;67.98;97283.63;5047045;28;20182;-71
2022/11/09 08:18:20;;;;;;;5.90;4.40;;;;;;;15.40;68.02;97280.19;5047015;28;20187;-71
2022/11/09 08:20:46;;;;;;;4.13;3.60;;;;;;;15.38;68.07;97272.41;5051795;28;20215;-71
2022/11/09 08:23:13;;;;;;;8.50;3.90;;;;;;;15.42;68.02;97271.06;5039803;28;20557;-70
2022/11/09 08:25:39;;;;;;;7.30;3.53;;;;;;;15.43;68.07;97267.41;5041223;28;20449;-70
2022/11/09 08:28:04;;;;;;;8.13;4.47;;;;;;;15.48;67.92;97265.06;5038714;28;20427;-71
2022/11/09 08:30:30;;;;;;;10.40;5.10;;;;;;;15.47;67.88;97258.16;5040804;28;20440;-69
2022/11/09 08:32:57;;;;;;;6.77;3.63;;;;;;;15.50;67.58;97268.31;5037903;28;20190;-71
2022/11/09 08:35:23;;;;;;;5.83;3.40;;;;;;;15.46;67.82;97267.06;5050026;28;20191;-72
2022/11/09 08:37:50;;;;;;;6.27;4.00;;;;;;;15.69;70.10;97276.72;5057437;28;20504;-70
2022/11/09 08:40:19;;;;;;;5.13;3.20;;;;;;;15.83;68.09;97269.75;5052990;28;20269;-70
2022/11/09 08:42:44;;;;;;;6.23;3.17;;;;;;;15.85;67.28;97264.34;5057662;28;20470;-70
2022/11/09 08:45:10;;;;;;;5.50;2.90;;;;;;;15.82;66.98;97254.91;5042700;28;20801;-70
2022/11/09 08:47:37;;;;;;;3.70;2.87;;;;;;;15.78;67.31;97262.38;5047849;28;20216;-71
2022/11/09 08:50:05;;;;;;;2.30;2.10;;;;;;;15.69;67.16;97271.44;5055530;28;20971;-71
2022/11/09 08:52:31;;;;;;;2.83;2.43;;;;;;;15.72;67.56;97263.16;5051460;28;20912;-69
2022/11/09 08:54:56;;;;;;;3.40;2.23;;;;;;;15.82;67.36;97254.91;5059672;28;20420;-69
2022/11/09 08:57:22;;;;;;;5.23;2.50;;;;;;;15.85;67.49;97269.63;5052499;28;20275;-71
2022/11/09 08:59:48;;;;;;;2.43;2.23;;;;;;;15.77;67.95;97271.31;5054856;28;20207;-70
2022/11/09 09:02:14;;;;;;;2.50;2.27;;;;;;;15.77;67.65;97255.47;5049212;28;20440;-71
2022/11/09 09:04:39;;;;;;;3.10;2.17;;;;;;;15.74;67.97;97252.38;5053568;28;20265;-70
2022/11/09 09:07:05;;;;;;;2.43;2.13;;;;;;;15.80;68.11;97254.28;5061111;28;20523;-73
2022/11/09 09:09:31;;;;;;;2.53;1.70;;;;;;;15.81;67.95;97262.03;5045255;28;20192;-72
2022/11/09 09:11:56;;;;;;;3.47;1.97;;;;;;;15.87;67.84;97257.06;5054649;28;20626;-72
2022/11/09 09:14:22;;;;;;;3.47;1.80;;;;;;;15.84;67.83;97263.47;5048309;28;20179;-71
2022/11/09 09:16:47;;;;;;;3.43;1.77;;;;;;;15.90;67.51;97256.66;5044091;28;20175;-71
2022/11/09 09:19:13;;;;;;;2.00;1.70;;;;;;;15.93;67.49;97261.59;5039929;28;20526;-70
2022/11/09 09:21:38;;;;;;;2.67;1.70;;;;;;;15.95;67.57;97270.16;5050891;28;20307;-72
2022/11/09 09:24:04;;;;;;;3.27;1.53;;;;;;;15.88;67.61;97278.00;5047543;28;20188;-70
2022/11/09 09:26:30;;;;;;;4.47;1.50;;;;;;;15.99;67.64;97275.88;5058807;28;20212;-71
2022/11/09 09:28:55;;;;;;;1.40;1.30;;;;;;;16.02;67.47;97283.44;5055548;28;20683;-71
2022/11/09 09:31:21;;;;;;;1.70;1.60;;;;;;;16.10;67.61;97278.88;5058571;28;20206;-72
2022/11/09 09:33:47;;;;;;;1.70;1.23;;;;;;;16.05;67.60;97277.81;5056927;28;20564;-71
2022/11/09 09:36:16;;;;;;;2.47;1.80;;;;;;;16.12;67.54;97284.81;5064805;28;20549;-71
2022/11/09 09:38:41;;;;;;;3.30;1.40;;;;;;;16.16;67.42;97284.41;5063733;28;20189;-71
2022/11/09 09:41:16;;;;;;;2.80;1.40;;;;;;;16.08;67.41;97280.88;5061384;28;20918;-71
2022/11/09 09:43:44;;;;;;;2.23;1.20;;;;;;;16.03;67.51;97293.81;5059430;28;20628;-71
2022/11/09 09:46:41;;;;;;;1.50;1.37;;;;;;;15.99;67.88;97291.75;5065957;28;20801;-72
2022/11/09 09:49:13;;;;;;;2.73;1.27;;;;;;;16.10;67.44;97286.81;5035554;28;20533;-71
2022/11/09 09:51:46;;;;;;;3.77;1.73;;;;;;;16.38;67.19;97280.78;5058925;28;20440;-71
2022/11/09 09:54:25;;;;;;;1.37;1.27;;;;;;;16.54;67.05;97284.22;5041944;28;20444;-72
2022/11/09 09:56:52;;;;;;;1.67;1.17;;;;;;;16.61;66.92;97284.28;5049474;28;20487;-72
2022/11/09 09:59:39;;;;;;;3.13;2.23;;;;;;;16.69;66.67;97292.91;5041008;28;20584;-71
2022/11/09 10:02:16;;;;;;;3.67;1.67;;;;;;;16.60;66.53;97291.41;5040663;28;20866;-69
2022/11/09 10:04:42;;;;;;;1.83;1.37;;;;;;;16.74;66.19;97290.53;5059829;28;20463;-71
2022/11/09 10:07:29;;;;;;;4.40;1.80;;;;;;;16.76;65.93;97290.31;5049283;28;20425;-71
2022/11/09 10:10:09;;;;;;;2.97;2.00;;;;;;;16.86;65.69;97297.97;5055346;28;20217;-71
2022/11/09 10:12:55;;;;;;;2.27;1.70;;;;;;;16.86;66.15;97290.81;5054232;28;20762;-71
2022/11/09 10:15:45;;;;;;;2.30;1.70;;;;;;;16.98;66.01;97279.75;5057778;28;20432;-70
2022/11/09 10:18:40;;;;;;;4.83;1.73;;;;;;;16.91;65.96;97290.25;5048637;28;20430;-70
2022/11/09 10:21:10;;;;;;;4.37;2.10;;;;;;;16.97;65.74;97278.94;5056559;28;20895;-71
2022/11/09 10:24:14;;;;;;;2.47;2.03;;;;;;;17.08;65.95;97282.06;5050143;28;20479;-72
2022/11/09 10:26:49;;;;;;;3.73;2.27;;;;;;;17.16;65.70;97271.31;5048026;28;20439;-71
2022/11/09 10:29:38;;;;;;;2.93;2.17;;;;;;;17.32;65.85;97271.03;5054313;28;20435;-72
2022/11/09 10:32:20;;;;;;;3.60;2.27;;;;;;;17.35;65.45;97265.34;5056428;28;20443;-72
2022/11/09 10:35:01;;;;;;;2.37;2.10;;;;;;;17.45;64.58;97264.19;5051120;28;20441;-71
2022/11/09 10:37:33;;;;;;;3.40;2.00;;;;;;;17.49;64.31;97260.16;5044117;28;20420;-71
2022/11/09 10:40:04;;;;;;;3.90;2.40;;;;;;;17.63;63.81;97247.78;5056771;28;20588;-70
2022/11/09 10:42:29;;;;;;;2.10;1.90;;;;;;;17.79;63.84;97254.56;5054814;28;20781;-71
2022/11/09 10:44:55;;;;;;;4.93;2.63;;;;;;;17.74;63.70;97255.16;5057259;28;20516;-71
2022/11/09 10:47:21;;;;;;;4.73;2.27;;;;;;;17.78;63.39;97255.56;5051601;28;20192;-71
2022/11/09 10:50:05;;;;;;;5.07;3.90;;;;;;;17.78;63.30;97251.13;5056270;28;20193;-71
2022/11/09 10:52:38;;;;;;;8.20;6.57;;;;;;;17.80;63.21;97242.94;5047448;28;21056;-71
2022/11/09 10:55:21;;;;;;;8.00;2.80;;;;;;;17.84;63.07;97246.84;5041633;28;20571;-71
2022/11/09 10:58:22;;;;;;;13.13;9.40;;;;;;;17.90;63.32;97239.94;5058552;28;20928;-71
2022/11/09 11:01:04;;;;;;;6.40;5.50;;;;;;;17.94;63.63;97228.75;5041334;28;20569;-71
2022/11/09 11:03:33;;;;;;;4.97;2.40;;;;;;;17.93;63.32;97235.06;5049219;28;20412;-70
2022/11/09 11:06:01;;;;;;;4.10;2.70;;;;;;;17.95;63.27;97233.03;5052537;28;20955;-70
2022/11/09 11:08:39;;;;;;;8.63;5.00;;;;;;;17.99;63.72;97237.97;5062786;28;20797;-71
2022/11/09 11:11:28;;;;;;;11.90;8.47;;;;;;;18.00;63.64;97229.00;5052088;28;20877;-70
2022/11/09 11:14:23;;;;;;;6.20;4.90;;;;;;;18.05;63.52;97232.69;5055745;28;20514;-71
2022/11/09 11:16:51;;;;;;;5.90;3.80;;;;;;;18.05;63.14;97227.38;5046114;28;20423;-70
2022/11/09 11:19:37;;;;;;;3.10;2.80;;;;;;;18.08;63.10;97223.50;5041898;28;20425;-70
2022/11/09 11:22:18;;;;;;;5.67;4.00;;;;;;;18.07;63.15;97222.72;5050907;28;20507;-71
2022/11/09 11:25:17;;;;;;;4.03;3.63;;;;;;;18.05;62.79;97221.25;5046492;28;20941;-70
2022/11/09 11:27:50;;;;;;;2.97;2.67;;;;;;;17.77;63.42;97224.78;5052585;28;20509;-71
2022/11/09 11:30:35;;;;;;;8.57;4.70;;;;;;;17.72;63.67;97221.94;5047379;28;20433;-70
2022/11/09 11:33:01;;;;;;;3.33;2.80;;;;;;;17.83;63.09;97224.00;5064378;28;20421;-71
2022/11/09 11:35:40;;;;;;;10.93;7.20;;;;;;;17.89;62.87;97223.22;5069291;28;20417;-69
2022/11/09 11:38:27;;;;;;;23.50;18.03;;;;;;;17.93;62.70;97219.16;5059545;28;20448;-72
2022/11/09 11:41:03;;;;;;;6.33;4.90;;;;;;;17.98;62.72;97220.44;5054173;28;20461;-71